AR95 weather

Arkansas Methodist Hospital Heliport
Paragould, Arkansas, United States

Public forecast

Using degrees Fahrenheit for public forecast. Weather courtesy of forecast.io.

METAR (pilot weather report)

Closest report is Jonesboro Municipal Airport, 15.0 nm (27.8 km) SSW. Retrieved 2019/05/21 12:33 UTC (0 seconds ago):

KJBR 211233Z AUTO 13003KT 10SM SCT027 BKN100 23/21 A2982 RMK AO2 T02330206 PWINO

TAF (pilot weather forecast)

Closest forecast is Jonesboro Municipal Airport, 15.0 nm (27.8 km) SSW. Retrieved 2019/05/21 12:22 UTC (0 seconds ago):

TAF KJBR 211120Z 2112/2212 10011KT P6SM BKN025 FM211400 18019G26KT P6SM SCT050 BKN250 FM212100 18023G30KT P6SM BKN050 FM220100 18017G25KT P6SM VCTS SCT035CB FM220300 18015G23KT 4SM -TSRA OVC025CB FM220900 19012KT P6SM OVC025